sensor_id;sensor_type;location;lat;lon;timestamp;P1;durP1;ratioP1;P2;durP2;ratioP2
8564;SDS011;4320;51.498;6.556;2022-09-09T00:09:23;1.00;;;1.00;;
8564;SDS011;4320;51.498;6.556;2022-09-09T00:11:54;1.73;;;1.00;;
8564;SDS011;4320;51.498;6.556;2022-09-09T00:14:37;1.25;;;1.00;;
8564;SDS011;4320;51.498;6.556;2022-09-09T00:17:23;0.95;;;0.93;;
8564;SDS011;4320;51.498;6.556;2022-09-09T00:22:27;1.13;;;1.05;;
8564;SDS011;4320;51.498;6.556;2022-09-09T00:24:58;5.40;;;1.20;;
8564;SDS011;4320;51.498;6.556;2022-09-09T00:27:48;1.55;;;1.30;;
8564;SDS011;4320;51.498;6.556;2022-09-09T00:30:26;1.27;;;1.17;;
8564;SDS011;4320;51.498;6.556;2022-09-09T00:32:59;1.92;;;1.20;;
8564;SDS011;4320;51.498;6.556;2022-09-09T00:35:32;1.48;;;1.15;;
8564;SDS011;4320;51.498;6.556;2022-09-09T00:38:08;1.77;;;1.20;;
8564;SDS011;4320;51.498;6.556;2022-09-09T00:41:40;1.30;;;1.20;;
8564;SDS011;4320;51.498;6.556;2022-09-09T00:43:55;1.63;;;1.17;;
8564;SDS011;4320;51.498;6.556;2022-09-09T00:49:32;4.65;;;1.30;;
8564;SDS011;4320;51.498;6.556;2022-09-09T00:57:25;2.97;;;1.30;;
8564;SDS011;4320;51.498;6.556;2022-09-09T00:59:56;1.83;;;1.20;;
8564;SDS011;4320;51.498;6.556;2022-09-09T01:02:52;2.83;;;1.35;;
8564;SDS011;4320;51.498;6.556;2022-09-09T01:05:49;3.30;;;1.88;;
8564;SDS011;4320;51.498;6.556;2022-09-09T01:08:36;1.85;;;1.30;;
8564;SDS011;4320;51.498;6.556;2022-09-09T01:11:21;3.30;;;1.38;;
8564;SDS011;4320;51.498;6.556;2022-09-09T01:14:11;1.23;;;1.13;;
8564;SDS011;4320;51.498;6.556;2022-09-09T01:16:39;1.33;;;1.13;;
8564;SDS011;4320;51.498;6.556;2022-09-09T01:19:07;3.08;;;1.27;;
8564;SDS011;4320;51.498;6.556;2022-09-09T01:26:43;1.25;;;1.13;;
8564;SDS011;4320;51.498;6.556;2022-09-09T01:29:11;2.60;;;1.50;;
8564;SDS011;4320;51.498;6.556;2022-09-09T01:31:40;2.65;;;1.30;;
8564;SDS011;4320;51.498;6.556;2022-09-09T01:34:29;4.57;;;1.55;;
8564;SDS011;4320;51.498;6.556;2022-09-09T01:39:35;2.78;;;1.48;;
8564;SDS011;4320;51.498;6.556;2022-09-09T01:42:03;2.22;;;1.63;;
8564;SDS011;4320;51.498;6.556;2022-09-09T01:44:31;2.10;;;1.23;;
8564;SDS011;4320;51.498;6.556;2022-09-09T01:46:57;1.98;;;1.60;;
8564;SDS011;4320;51.498;6.556;2022-09-09T01:49:23;4.47;;;1.48;;
8564;SDS011;4320;51.498;6.556;2022-09-09T01:51:49;1.77;;;1.40;;
8564;SDS011;4320;51.498;6.556;2022-09-09T01:54:19;4.90;;;1.67;;
8564;SDS011;4320;51.498;6.556;2022-09-09T02:04:54;2.13;;;1.92;;
8564;SDS011;4320;51.498;6.556;2022-09-09T02:07:39;3.13;;;2.25;;
8564;SDS011;4320;51.498;6.556;2022-09-09T02:10:12;3.58;;;2.20;;
8564;SDS011;4320;51.498;6.556;2022-09-09T02:12:45;2.00;;;1.80;;
8564;SDS011;4320;51.498;6.556;2022-09-09T02:15:30;4.57;;;2.13;;
8564;SDS011;4320;51.498;6.556;2022-09-09T02:18:00;2.45;;;1.88;;
8564;SDS011;4320;51.498;6.556;2022-09-09T02:20:32;4.90;;;2.15;;
8564;SDS011;4320;51.498;6.556;2022-09-09T02:22:58;3.78;;;2.25;;
8564;SDS011;4320;51.498;6.556;2022-09-09T02:25:26;4.00;;;2.15;;
8564;SDS011;4320;51.498;6.556;2022-09-09T02:27:57;3.33;;;2.22;;
8564;SDS011;4320;51.498;6.556;2022-09-09T02:30:23;4.97;;;2.03;;
8564;SDS011;4320;51.498;6.556;2022-09-09T02:32:50;3.22;;;2.03;;
8564;SDS011;4320;51.498;6.556;2022-09-09T02:35:22;5.00;;;2.08;;
8564;SDS011;4320;51.498;6.556;2022-09-09T02:37:49;4.57;;;1.95;;
8564;SDS011;4320;51.498;6.556;2022-09-09T02:40:18;3.17;;;2.03;;
8564;SDS011;4320;51.498;6.556;2022-09-09T02:42:46;1.80;;;1.70;;
8564;SDS011;4320;51.498;6.556;2022-09-09T02:45:14;3.90;;;1.98;;
8564;SDS011;4320;51.498;6.556;2022-09-09T02:50:34;3.60;;;1.70;;
8564;SDS011;4320;51.498;6.556;2022-09-09T02:58:01;2.55;;;1.70;;
8564;SDS011;4320;51.498;6.556;2022-09-09T03:00:31;1.83;;;1.52;;
8564;SDS011;4320;51.498;6.556;2022-09-09T03:02:57;3.63;;;1.85;;
8564;SDS011;4320;51.498;6.556;2022-09-09T03:05:23;2.75;;;1.83;;
8564;SDS011;4320;51.498;6.556;2022-09-09T03:07:49;3.30;;;1.88;;
8564;SDS011;4320;51.498;6.556;2022-09-09T03:10:15;2.72;;;1.85;;
8564;SDS011;4320;51.498;6.556;2022-09-09T03:12:42;2.15;;;1.40;;
8564;SDS011;4320;51.498;6.556;2022-09-09T03:15:08;2.05;;;1.58;;
8564;SDS011;4320;51.498;6.556;2022-09-09T03:17:34;3.33;;;1.58;;
8564;SDS011;4320;51.498;6.556;2022-09-09T03:20:01;5.53;;;1.50;;
8564;SDS011;4320;51.498;6.556;2022-09-09T03:22:28;2.15;;;1.45;;
8564;SDS011;4320;51.498;6.556;2022-09-09T03:24:54;3.15;;;1.63;;
8564;SDS011;4320;51.498;6.556;2022-09-09T03:27:19;2.42;;;1.33;;
8564;SDS011;4320;51.498;6.556;2022-09-09T03:29:45;5.38;;;1.80;;
8564;SDS011;4320;51.498;6.556;2022-09-09T03:32:11;2.35;;;1.42;;
8564;SDS011;4320;51.498;6.556;2022-09-09T03:34:37;4.53;;;1.63;;
8564;SDS011;4320;51.498;6.556;2022-09-09T03:37:05;6.72;;;1.73;;
8564;SDS011;4320;51.498;6.556;2022-09-09T03:39:31;3.65;;;1.60;;
8564;SDS011;4320;51.498;6.556;2022-09-09T03:41:56;3.42;;;1.25;;
8564;SDS011;4320;51.498;6.556;2022-09-09T03:44:22;1.63;;;1.42;;
8564;SDS011;4320;51.498;6.556;2022-09-09T03:46:48;3.45;;;1.85;;
8564;SDS011;4320;51.498;6.556;2022-09-09T03:49:14;4.53;;;1.58;;
8564;SDS011;4320;51.498;6.556;2022-09-09T03:51:40;3.45;;;2.00;;
8564;SDS011;4320;51.498;6.556;2022-09-09T03:54:06;2.75;;;1.83;;
8564;SDS011;4320;51.498;6.556;2022-09-09T03:56:35;5.13;;;2.08;;
8564;SDS011;4320;51.498;6.556;2022-09-09T03:59:01;5.43;;;1.83;;
8564;SDS011;4320;51.498;6.556;2022-09-09T04:01:26;3.10;;;2.00;;
8564;SDS011;4320;51.498;6.556;2022-09-09T04:03:53;3.30;;;1.65;;
8564;SDS011;4320;51.498;6.556;2022-09-09T04:06:20;2.20;;;1.70;;
8564;SDS011;4320;51.498;6.556;2022-09-09T04:08:46;3.85;;;1.92;;
8564;SDS011;4320;51.498;6.556;2022-09-09T04:11:13;4.90;;;1.67;;
8564;SDS011;4320;51.498;6.556;2022-09-09T04:13:40;5.40;;;1.92;;
8564;SDS011;4320;51.498;6.556;2022-09-09T04:16:06;4.22;;;1.70;;
8564;SDS011;4320;51.498;6.556;2022-09-09T04:18:34;8.27;;;1.83;;
8564;SDS011;4320;51.498;6.556;2022-09-09T04:21:00;5.53;;;1.90;;
8564;SDS011;4320;51.498;6.556;2022-09-09T04:23:26;5.95;;;1.83;;
8564;SDS011;4320;51.498;6.556;2022-09-09T04:25:54;1.83;;;1.63;;
8564;SDS011;4320;51.498;6.556;2022-09-09T04:28:22;4.13;;;1.70;;
8564;SDS011;4320;51.498;6.556;2022-09-09T04:30:49;2.55;;;1.58;;
8564;SDS011;4320;51.498;6.556;2022-09-09T04:33:15;6.90;;;1.88;;
8564;SDS011;4320;51.498;6.556;2022-09-09T04:35:49;4.82;;;1.90;;
8564;SDS011;4320;51.498;6.556;2022-09-09T04:38:16;5.00;;;1.92;;
8564;SDS011;4320;51.498;6.556;2022-09-09T04:40:43;5.15;;;2.10;;
8564;SDS011;4320;51.498;6.556;2022-09-09T04:43:09;7.00;;;1.75;;
8564;SDS011;4320;51.498;6.556;2022-09-09T04:45:35;5.00;;;1.95;;
8564;SDS011;4320;51.498;6.556;2022-09-09T04:48:01;5.40;;;2.00;;
8564;SDS011;4320;51.498;6.556;2022-09-09T04:50:27;3.58;;;1.65;;
8564;SDS011;4320;51.498;6.556;2022-09-09T04:52:53;3.88;;;1.85;;
8564;SDS011;4320;51.498;6.556;2022-09-09T04:55:19;3.15;;;1.75;;
8564;SDS011;4320;51.498;6.556;2022-09-09T04:57:45;4.35;;;1.60;;
8564;SDS011;4320;51.498;6.556;2022-09-09T05:00:11;4.82;;;2.08;;
8564;SDS011;4320;51.498;6.556;2022-09-09T05:02:38;6.65;;;2.05;;
8564;SDS011;4320;51.498;6.556;2022-09-09T05:05:04;5.40;;;1.95;;
8564;SDS011;4320;51.498;6.556;2022-09-09T05:07:31;4.22;;;1.90;;
8564;SDS011;4320;51.498;6.556;2022-09-09T05:09:56;6.22;;;1.85;;
8564;SDS011;4320;51.498;6.556;2022-09-09T05:12:22;3.42;;;2.05;;
8564;SDS011;4320;51.498;6.556;2022-09-09T05:14:50;4.82;;;2.17;;
8564;SDS011;4320;51.498;6.556;2022-09-09T05:17:16;3.92;;;1.80;;
8564;SDS011;4320;51.498;6.556;2022-09-09T05:19:43;5.13;;;2.17;;
8564;SDS011;4320;51.498;6.556;2022-09-09T05:22:09;6.40;;;2.20;;
8564;SDS011;4320;51.498;6.556;2022-09-09T05:24:36;4.13;;;2.05;;
8564;SDS011;4320;51.498;6.556;2022-09-09T05:27:02;8.40;;;2.13;;
8564;SDS011;4320;51.498;6.556;2022-09-09T05:29:28;7.22;;;2.13;;
8564;SDS011;4320;51.498;6.556;2022-09-09T05:31:53;3.67;;;2.22;;
8564;SDS011;4320;51.498;6.556;2022-09-09T05:34:19;7.10;;;2.33;;
8564;SDS011;4320;51.498;6.556;2022-09-09T05:36:45;5.25;;;2.20;;
8564;SDS011;4320;51.498;6.556;2022-09-09T05:39:11;5.03;;;2.13;;
8564;SDS011;4320;51.498;6.556;2022-09-09T05:41:37;7.03;;;2.45;;
8564;SDS011;4320;51.498;6.556;2022-09-09T05:44:03;6.75;;;2.45;;
8564;SDS011;4320;51.498;6.556;2022-09-09T05:46:29;6.40;;;2.15;;
8564;SDS011;4320;51.498;6.556;2022-09-09T05:48:55;5.55;;;2.67;;
8564;SDS011;4320;51.498;6.556;2022-09-09T05:51:22;9.45;;;2.72;;
8564;SDS011;4320;51.498;6.556;2022-09-09T05:53:49;6.18;;;3.22;;
8564;SDS011;4320;51.498;6.556;2022-09-09T05:56:20;6.40;;;2.95;;
8564;SDS011;4320;51.498;6.556;2022-09-09T05:58:50;8.52;;;3.63;;
8564;SDS011;4320;51.498;6.556;2022-09-09T06:01:18;6.60;;;2.63;;
8564;SDS011;4320;51.498;6.556;2022-09-09T06:03:46;5.40;;;2.75;;
8564;SDS011;4320;51.498;6.556;2022-09-09T06:06:14;4.28;;;2.33;;
8564;SDS011;4320;51.498;6.556;2022-09-09T06:08:42;5.63;;;2.17;;
8564;SDS011;4320;51.498;6.556;2022-09-09T06:11:11;5.35;;;2.35;;
8564;SDS011;4320;51.498;6.556;2022-09-09T06:13:38;5.90;;;1.90;;
8564;SDS011;4320;51.498;6.556;2022-09-09T06:16:06;8.90;;;2.60;;
8564;SDS011;4320;51.498;6.556;2022-09-09T06:18:43;6.40;;;2.30;;
8564;SDS011;4320;51.498;6.556;2022-09-09T06:23:42;6.28;;;2.03;;
8564;SDS011;4320;51.498;6.556;2022-09-09T06:29:07;5.57;;;2.28;;
8564;SDS011;4320;51.498;6.556;2022-09-09T06:31:34;5.60;;;2.38;;
8564;SDS011;4320;51.498;6.556;2022-09-09T06:34:02;5.82;;;2.20;;
8564;SDS011;4320;51.498;6.556;2022-09-09T06:36:30;6.70;;;2.60;;
8564;SDS011;4320;51.498;6.556;2022-09-09T06:38:58;6.88;;;2.17;;
8564;SDS011;4320;51.498;6.556;2022-09-09T06:41:25;7.00;;;2.15;;
8564;SDS011;4320;51.498;6.556;2022-09-09T06:43:55;4.47;;;2.15;;
8564;SDS011;4320;51.498;6.556;2022-09-09T06:46:28;2.55;;;1.88;;
8564;SDS011;4320;51.498;6.556;2022-09-09T06:48:57;5.15;;;2.03;;
8564;SDS011;4320;51.498;6.556;2022-09-09T06:51:28;3.80;;;1.70;;
8564;SDS011;4320;51.498;6.556;2022-09-09T06:53:56;6.88;;;2.42;;
8564;SDS011;4320;51.498;6.556;2022-09-09T06:56:42;4.93;;;1.80;;
8564;SDS011;4320;51.498;6.556;2022-09-09T06:59:08;8.02;;;2.30;;
8564;SDS011;4320;51.498;6.556;2022-09-09T07:01:36;8.02;;;2.67;;
8564;SDS011;4320;51.498;6.556;2022-09-09T07:04:06;6.38;;;2.10;;
8564;SDS011;4320;51.498;6.556;2022-09-09T07:06:39;5.72;;;2.00;;
8564;SDS011;4320;51.498;6.556;2022-09-09T07:09:08;5.57;;;1.80;;
8564;SDS011;4320;51.498;6.556;2022-09-09T07:11:42;4.65;;;2.03;;
8564;SDS011;4320;51.498;6.556;2022-09-09T07:14:12;5.18;;;1.70;;
8564;SDS011;4320;51.498;6.556;2022-09-09T07:16:39;4.07;;;1.73;;
8564;SDS011;4320;51.498;6.556;2022-09-09T07:19:09;4.07;;;1.77;;
8564;SDS011;4320;51.498;6.556;2022-09-09T07:21:39;3.72;;;1.77;;
8564;SDS011;4320;51.498;6.556;2022-09-09T07:24:05;3.05;;;1.60;;
8564;SDS011;4320;51.498;6.556;2022-09-09T07:26:32;5.72;;;1.83;;
8564;SDS011;4320;51.498;6.556;2022-09-09T07:28:58;3.13;;;1.60;;
8564;SDS011;4320;51.498;6.556;2022-09-09T07:31:25;3.70;;;1.92;;
8564;SDS011;4320;51.498;6.556;2022-09-09T07:33:52;8.27;;;2.03;;
8564;SDS011;4320;51.498;6.556;2022-09-09T07:36:23;4.35;;;1.98;;
8564;SDS011;4320;51.498;6.556;2022-09-09T07:38:52;4.38;;;1.77;;
8564;SDS011;4320;51.498;6.556;2022-09-09T07:43:48;6.03;;;1.75;;
8564;SDS011;4320;51.498;6.556;2022-09-09T07:46:16;6.07;;;1.88;;
8564;SDS011;4320;51.498;6.556;2022-09-09T07:48:48;5.22;;;1.25;;
8564;SDS011;4320;51.498;6.556;2022-09-09T07:51:32;3.67;;;1.58;;
8564;SDS011;4320;51.498;6.556;2022-09-09T07:54:00;4.18;;;1.75;;
8564;SDS011;4320;51.498;6.556;2022-09-09T07:56:30;9.40;;;2.00;;
8564;SDS011;4320;51.498;6.556;2022-09-09T07:58:57;4.93;;;1.73;;
8564;SDS011;4320;51.498;6.556;2022-09-09T08:03:58;6.05;;;1.77;;
8564;SDS011;4320;51.498;6.556;2022-09-09T08:06:29;8.18;;;2.05;;
8564;SDS011;4320;51.498;6.556;2022-09-09T08:08:58;7.03;;;1.75;;
8564;SDS011;4320;51.498;6.556;2022-09-09T08:11:24;4.65;;;1.50;;
8564;SDS011;4320;51.498;6.556;2022-09-09T08:13:52;6.43;;;1.77;;
8564;SDS011;4320;51.498;6.556;2022-09-09T08:16:19;3.15;;;1.63;;
8564;SDS011;4320;51.498;6.556;2022-09-09T08:18:49;5.28;;;1.63;;
8564;SDS011;4320;51.498;6.556;2022-09-09T08:21:23;7.10;;;2.10;;
8564;SDS011;4320;51.498;6.556;2022-09-09T08:23:52;4.18;;;1.63;;
8564;SDS011;4320;51.498;6.556;2022-09-09T08:26:20;4.82;;;1.70;;
8564;SDS011;4320;51.498;6.556;2022-09-09T08:28:51;8.35;;;2.25;;
8564;SDS011;4320;51.498;6.556;2022-09-09T08:31:37;6.07;;;1.70;;
8564;SDS011;4320;51.498;6.556;2022-09-09T08:34:11;2.92;;;1.77;;
8564;SDS011;4320;51.498;6.556;2022-09-09T08:36:38;3.33;;;1.58;;
8564;SDS011;4320;51.498;6.556;2022-09-09T08:39:07;5.85;;;2.00;;
8564;SDS011;4320;51.498;6.556;2022-09-09T08:52:53;5.38;;;1.52;;
8564;SDS011;4320;51.498;6.556;2022-09-09T08:55:47;4.10;;;1.50;;
8564;SDS011;4320;51.498;6.556;2022-09-09T08:58:20;7.28;;;1.95;;
8564;SDS011;4320;51.498;6.556;2022-09-09T09:09:42;7.97;;;1.70;;
8564;SDS011;4320;51.498;6.556;2022-09-09T09:12:19;4.75;;;1.67;;
8564;SDS011;4320;51.498;6.556;2022-09-09T09:14:47;6.28;;;2.35;;
8564;SDS011;4320;51.498;6.556;2022-09-09T09:17:14;4.15;;;1.83;;
8564;SDS011;4320;51.498;6.556;2022-09-09T09:19:42;4.22;;;1.67;;
8564;SDS011;4320;51.498;6.556;2022-09-09T09:24:53;2.67;;;1.40;;
8564;SDS011;4320;51.498;6.556;2022-09-09T09:30:14;3.70;;;1.70;;
8564;SDS011;4320;51.498;6.556;2022-09-09T09:32:45;5.18;;;1.70;;
8564;SDS011;4320;51.498;6.556;2022-09-09T09:35:26;4.80;;;1.60;;
8564;SDS011;4320;51.498;6.556;2022-09-09T09:37:51;1.42;;;1.27;;
8564;SDS011;4320;51.498;6.556;2022-09-09T09:40:18;4.45;;;1.70;;
8564;SDS011;4320;51.498;6.556;2022-09-09T09:42:50;3.33;;;1.30;;
8564;SDS011;4320;51.498;6.556;2022-09-09T09:45:25;4.10;;;1.60;;
8564;SDS011;4320;51.498;6.556;2022-09-09T09:48:01;4.72;;;1.13;;
8564;SDS011;4320;51.498;6.556;2022-09-09T09:50:31;2.70;;;1.10;;
8564;SDS011;4320;51.498;6.556;2022-09-09T09:52:59;2.60;;;1.35;;
8564;SDS011;4320;51.498;6.556;2022-09-09T09:55:29;3.45;;;1.48;;
8564;SDS011;4320;51.498;6.556;2022-09-09T09:58:06;1.70;;;1.33;;
8564;SDS011;4320;51.498;6.556;2022-09-09T10:00:47;2.67;;;1.45;;
8564;SDS011;4320;51.498;6.556;2022-09-09T10:03:19;5.53;;;1.50;;
8564;SDS011;4320;51.498;6.556;2022-09-09T10:05:51;4.18;;;1.70;;
8564;SDS011;4320;51.498;6.556;2022-09-09T10:08:17;2.20;;;1.40;;
8564;SDS011;4320;51.498;6.556;2022-09-09T10:19:34;5.40;;;1.48;;
8564;SDS011;4320;51.498;6.556;2022-09-09T10:24:54;2.10;;;1.20;;
8564;SDS011;4320;51.498;6.556;2022-09-09T10:35:14;2.75;;;1.13;;
8564;SDS011;4320;51.498;6.556;2022-09-09T10:40:33;3.97;;;1.30;;
8564;SDS011;4320;51.498;6.556;2022-09-09T10:56:38;4.50;;;1.55;;
8564;SDS011;4320;51.498;6.556;2022-09-09T11:01:44;6.45;;;1.83;;
8564;SDS011;4320;51.498;6.556;2022-09-09T11:04:15;3.70;;;1.48;;
8564;SDS011;4320;51.498;6.556;2022-09-09T11:07:10;6.55;;;1.63;;
8564;SDS011;4320;51.498;6.556;2022-09-09T11:09:42;3.65;;;1.30;;
8564;SDS011;4320;51.498;6.556;2022-09-09T11:12:15;6.55;;;1.50;;
8564;SDS011;4320;51.498;6.556;2022-09-09T11:14:45;3.78;;;1.30;;
8564;SDS011;4320;51.498;6.556;2022-09-09T11:17:16;3.20;;;1.38;;
8564;SDS011;4320;51.498;6.556;2022-09-09T11:19:47;5.63;;;1.42;;
8564;SDS011;4320;51.498;6.556;2022-09-09T11:25:41;3.83;;;1.30;;
8564;SDS011;4320;51.498;6.556;2022-09-09T11:30:17;10.13;;;1.70;;
8564;SDS011;4320;51.498;6.556;2022-09-09T11:32:58;1.88;;;1.45;;
8564;SDS011;4320;51.498;6.556;2022-09-09T11:38:53;3.53;;;1.35;;
8564;SDS011;4320;51.498;6.556;2022-09-09T11:41:42;3.63;;;1.48;;
8564;SDS011;4320;51.498;6.556;2022-09-09T11:44:11;5.47;;;1.60;;
8564;SDS011;4320;51.498;6.556;2022-09-09T11:46:42;4.90;;;1.23;;
8564;SDS011;4320;51.498;6.556;2022-09-09T11:51:56;3.92;;;1.40;;
8564;SDS011;4320;51.498;6.556;2022-09-09T11:54:32;5.38;;;1.25;;
8564;SDS011;4320;51.498;6.556;2022-09-09T11:57:42;2.00;;;1.00;;
8564;SDS011;4320;51.498;6.556;2022-09-09T12:00:02;1.45;;;0.90;;
8564;SDS011;4320;51.498;6.556;2022-09-09T12:02:29;4.20;;;1.10;;
8564;SDS011;4320;51.498;6.556;2022-09-09T12:05:02;2.85;;;0.90;;
8564;SDS011;4320;51.498;6.556;2022-09-09T12:07:37;2.80;;;1.20;;
8564;SDS011;4320;51.498;6.556;2022-09-09T12:12:37;1.98;;;1.20;;
8564;SDS011;4320;51.498;6.556;2022-09-09T12:15:17;1.25;;;0.95;;
8564;SDS011;4320;51.498;6.556;2022-09-09T12:17:46;3.58;;;1.20;;
8564;SDS011;4320;51.498;6.556;2022-09-09T12:25:30;5.50;;;1.15;;
8564;SDS011;4320;51.498;6.556;2022-09-09T12:30:55;4.18;;;1.25;;
8564;SDS011;4320;51.498;6.556;2022-09-09T12:33:33;2.58;;;1.27;;
8564;SDS011;4320;51.498;6.556;2022-09-09T12:36:00;2.95;;;1.40;;
8564;SDS011;4320;51.498;6.556;2022-09-09T12:38:34;2.65;;;1.20;;
8564;SDS011;4320;51.498;6.556;2022-09-09T12:41:01;2.00;;;1.10;;
8564;SDS011;4320;51.498;6.556;2022-09-09T12:43:27;3.05;;;1.63;;
8564;SDS011;4320;51.498;6.556;2022-09-09T12:46:01;4.18;;;1.50;;
8564;SDS011;4320;51.498;6.556;2022-09-09T12:48:35;3.00;;;1.40;;
8564;SDS011;4320;51.498;6.556;2022-09-09T12:51:04;3.40;;;1.50;;
8564;SDS011;4320;51.498;6.556;2022-09-09T12:53:39;5.00;;;1.30;;
8564;SDS011;4320;51.498;6.556;2022-09-09T12:56:06;2.22;;;1.58;;
8564;SDS011;4320;51.498;6.556;2022-09-09T12:58:33;4.82;;;1.50;;
8564;SDS011;4320;51.498;6.556;2022-09-09T13:01:01;4.43;;;1.48;;
8564;SDS011;4320;51.498;6.556;2022-09-09T13:03:30;2.70;;;1.30;;
8564;SDS011;4320;51.498;6.556;2022-09-09T13:05:58;2.72;;;1.50;;
8564;SDS011;4320;51.498;6.556;2022-09-09T13:08:36;3.00;;;1.33;;
8564;SDS011;4320;51.498;6.556;2022-09-09T13:11:03;6.28;;;1.60;;
8564;SDS011;4320;51.498;6.556;2022-09-09T13:13:36;2.72;;;1.48;;
8564;SDS011;4320;51.498;6.556;2022-09-09T13:16:06;2.83;;;1.38;;
8564;SDS011;4320;51.498;6.556;2022-09-09T13:18:45;3.35;;;1.30;;
8564;SDS011;4320;51.498;6.556;2022-09-09T13:21:11;2.95;;;1.33;;
8564;SDS011;4320;51.498;6.556;2022-09-09T13:23:37;4.22;;;1.45;;
8564;SDS011;4320;51.498;6.556;2022-09-09T13:28:49;2.15;;;1.27;;
8564;SDS011;4320;51.498;6.556;2022-09-09T13:33:54;2.13;;;1.27;;
8564;SDS011;4320;51.498;6.556;2022-09-09T13:36:30;3.33;;;1.20;;
8564;SDS011;4320;51.498;6.556;2022-09-09T13:38:58;3.60;;;1.48;;
8564;SDS011;4320;51.498;6.556;2022-09-09T13:41:42;3.40;;;1.40;;
8564;SDS011;4320;51.498;6.556;2022-09-09T13:44:20;4.50;;;1.52;;
8564;SDS011;4320;51.498;6.556;2022-09-09T13:47:00;3.13;;;1.48;;
8564;SDS011;4320;51.498;6.556;2022-09-09T13:49:45;3.05;;;1.20;;
8564;SDS011;4320;51.498;6.556;2022-09-09T13:52:12;3.42;;;1.35;;
8564;SDS011;4320;51.498;6.556;2022-09-09T13:54:46;3.10;;;1.30;;
8564;SDS011;4320;51.498;6.556;2022-09-09T13:57:17;6.03;;;1.60;;
8564;SDS011;4320;51.498;6.556;2022-09-09T13:59:44;1.95;;;1.20;;
8564;SDS011;4320;51.498;6.556;2022-09-09T14:02:14;1.65;;;1.10;;
8564;SDS011;4320;51.498;6.556;2022-09-09T14:04:41;2.47;;;1.40;;
8564;SDS011;4320;51.498;6.556;2022-09-09T14:07:11;2.90;;;1.52;;
8564;SDS011;4320;51.498;6.556;2022-09-09T14:09:38;2.30;;;1.40;;
8564;SDS011;4320;51.498;6.556;2022-09-09T14:12:05;1.23;;;1.10;;
8564;SDS011;4320;51.498;6.556;2022-09-09T14:14:33;3.03;;;1.17;;
8564;SDS011;4320;51.498;6.556;2022-09-09T14:16:59;2.45;;;1.27;;
8564;SDS011;4320;51.498;6.556;2022-09-09T14:19:25;2.42;;;1.10;;
8564;SDS011;4320;51.498;6.556;2022-09-09T14:21:51;1.80;;;1.23;;
8564;SDS011;4320;51.498;6.556;2022-09-09T14:24:16;3.40;;;1.35;;
8564;SDS011;4320;51.498;6.556;2022-09-09T14:26:42;2.58;;;1.20;;
8564;SDS011;4320;51.498;6.556;2022-09-09T14:29:08;1.92;;;1.33;;
8564;SDS011;4320;51.498;6.556;2022-09-09T14:31:33;1.75;;;1.40;;
8564;SDS011;4320;51.498;6.556;2022-09-09T14:33:59;2.58;;;1.00;;
8564;SDS011;4320;51.498;6.556;2022-09-09T14:36:25;1.70;;;1.10;;
8564;SDS011;4320;51.498;6.556;2022-09-09T14:38:50;2.30;;;1.38;;
8564;SDS011;4320;51.498;6.556;2022-09-09T14:41:17;3.10;;;1.30;;
8564;SDS011;4320;51.498;6.556;2022-09-09T14:43:45;2.22;;;1.02;;
8564;SDS011;4320;51.498;6.556;2022-09-09T14:46:12;4.57;;;1.42;;
8564;SDS011;4320;51.498;6.556;2022-09-09T14:48:39;1.77;;;1.25;;
8564;SDS011;4320;51.498;6.556;2022-09-09T14:51:09;3.58;;;1.63;;
8564;SDS011;4320;51.498;6.556;2022-09-09T14:53:40;2.10;;;1.27;;
8564;SDS011;4320;51.498;6.556;2022-09-09T14:56:11;4.05;;;1.50;;
8564;SDS011;4320;51.498;6.556;2022-09-09T14:58:41;3.15;;;1.83;;
8564;SDS011;4320;51.498;6.556;2022-09-09T15:01:08;3.50;;;1.50;;
8564;SDS011;4320;51.498;6.556;2022-09-09T15:03:36;3.42;;;1.30;;
8564;SDS011;4320;51.498;6.556;2022-09-09T15:06:12;2.88;;;1.67;;
8564;SDS011;4320;51.498;6.556;2022-09-09T15:08:40;3.50;;;1.50;;
8564;SDS011;4320;51.498;6.556;2022-09-09T15:11:06;2.25;;;1.55;;
8564;SDS011;4320;51.498;6.556;2022-09-09T15:13:33;2.72;;;1.55;;
8564;SDS011;4320;51.498;6.556;2022-09-09T15:16:03;2.50;;;1.30;;
8564;SDS011;4320;51.498;6.556;2022-09-09T15:18:33;2.40;;;1.40;;
8564;SDS011;4320;51.498;6.556;2022-09-09T15:21:01;1.30;;;1.20;;
8564;SDS011;4320;51.498;6.556;2022-09-09T15:23:31;3.33;;;1.30;;
8564;SDS011;4320;51.498;6.556;2022-09-09T15:25:57;2.17;;;1.30;;
8564;SDS011;4320;51.498;6.556;2022-09-09T15:28:23;2.30;;;1.13;;
8564;SDS011;4320;51.498;6.556;2022-09-09T15:30:49;1.83;;;1.10;;
8564;SDS011;4320;51.498;6.556;2022-09-09T15:33:17;2.67;;;1.27;;
8564;SDS011;4320;51.498;6.556;2022-09-09T15:35:46;3.28;;;1.30;;
8564;SDS011;4320;51.498;6.556;2022-09-09T15:38:12;3.97;;;1.50;;
8564;SDS011;4320;51.498;6.556;2022-09-09T15:40:41;1.88;;;1.52;;
8564;SDS011;4320;51.498;6.556;2022-09-09T15:43:07;2.72;;;1.50;;
8564;SDS011;4320;51.498;6.556;2022-09-09T15:45:34;1.70;;;1.30;;
8564;SDS011;4320;51.498;6.556;2022-09-09T15:48:00;2.95;;;1.60;;
8564;SDS011;4320;51.498;6.556;2022-09-09T15:50:26;2.95;;;1.67;;
8564;SDS011;4320;51.498;6.556;2022-09-09T15:52:55;3.80;;;1.58;;
8564;SDS011;4320;51.498;6.556;2022-09-09T15:55:21;3.60;;;1.40;;
8564;SDS011;4320;51.498;6.556;2022-09-09T15:57:46;2.10;;;1.33;;
8564;SDS011;4320;51.498;6.556;2022-09-09T16:00:12;3.63;;;1.58;;
8564;SDS011;4320;51.498;6.556;2022-09-09T16:02:39;4.00;;;1.52;;
8564;SDS011;4320;51.498;6.556;2022-09-09T16:05:05;1.92;;;1.38;;
8564;SDS011;4320;51.498;6.556;2022-09-09T16:07:31;3.65;;;1.60;;
8564;SDS011;4320;51.498;6.556;2022-09-09T16:09:56;2.15;;;1.52;;
8564;SDS011;4320;51.498;6.556;2022-09-09T16:12:22;2.20;;;1.38;;
8564;SDS011;4320;51.498;6.556;2022-09-09T16:14:47;3.15;;;2.05;;
8564;SDS011;4320;51.498;6.556;2022-09-09T16:17:13;4.18;;;1.80;;
8564;SDS011;4320;51.498;6.556;2022-09-09T16:19:40;4.60;;;1.75;;
8564;SDS011;4320;51.498;6.556;2022-09-09T16:22:06;1.55;;;1.25;;
8564;SDS011;4320;51.498;6.556;2022-09-09T16:24:32;2.03;;;1.25;;
8564;SDS011;4320;51.498;6.556;2022-09-09T16:26:57;3.05;;;1.60;;
8564;SDS011;4320;51.498;6.556;2022-09-09T16:29:23;2.45;;;1.45;;
8564;SDS011;4320;51.498;6.556;2022-09-09T16:31:52;1.90;;;1.58;;
8564;SDS011;4320;51.498;6.556;2022-09-09T16:34:18;2.95;;;1.35;;
8564;SDS011;4320;51.498;6.556;2022-09-09T16:36:45;4.63;;;1.73;;
8564;SDS011;4320;51.498;6.556;2022-09-09T16:39:15;2.80;;;1.27;;
8564;SDS011;4320;51.498;6.556;2022-09-09T16:41:43;2.10;;;1.30;;
8564;SDS011;4320;51.498;6.556;2022-09-09T16:44:10;1.73;;;1.42;;
8564;SDS011;4320;51.498;6.556;2022-09-09T16:46:38;2.30;;;1.30;;
8564;SDS011;4320;51.498;6.556;2022-09-09T16:49:11;2.40;;;1.40;;
8564;SDS011;4320;51.498;6.556;2022-09-09T16:51:40;2.38;;;1.35;;
8564;SDS011;4320;51.498;6.556;2022-09-09T16:54:08;2.25;;;1.30;;
8564;SDS011;4320;51.498;6.556;2022-09-09T16:56:36;2.08;;;1.30;;
8564;SDS011;4320;51.498;6.556;2022-09-09T16:59:05;2.10;;;1.20;;
8564;SDS011;4320;51.498;6.556;2022-09-09T17:01:32;2.60;;;1.45;;
8564;SDS011;4320;51.498;6.556;2022-09-09T17:04:03;5.40;;;1.50;;
8564;SDS011;4320;51.498;6.556;2022-09-09T17:06:31;2.53;;;1.33;;
8564;SDS011;4320;51.498;6.556;2022-09-09T17:09:03;3.42;;;1.30;;
8564;SDS011;4320;51.498;6.556;2022-09-09T17:11:36;1.67;;;1.30;;
8564;SDS011;4320;51.498;6.556;2022-09-09T17:14:04;2.00;;;1.25;;
8564;SDS011;4320;51.498;6.556;2022-09-09T17:16:31;2.35;;;1.63;;
8564;SDS011;4320;51.498;6.556;2022-09-09T17:19:02;1.50;;;1.30;;
8564;SDS011;4320;51.498;6.556;2022-09-09T17:21:29;3.10;;;1.25;;
8564;SDS011;4320;51.498;6.556;2022-09-09T17:23:55;3.33;;;1.58;;
8564;SDS011;4320;51.498;6.556;2022-09-09T17:26:22;3.13;;;1.67;;
8564;SDS011;4320;51.498;6.556;2022-09-09T17:28:51;3.45;;;1.17;;
8564;SDS011;4320;51.498;6.556;2022-09-09T17:31:18;5.40;;;1.70;;
8564;SDS011;4320;51.498;6.556;2022-09-09T17:33:45;2.50;;;1.27;;
8564;SDS011;4320;51.498;6.556;2022-09-09T17:38:40;2.42;;;1.52;;
8564;SDS011;4320;51.498;6.556;2022-09-09T17:43:39;2.38;;;1.70;;
8564;SDS011;4320;51.498;6.556;2022-09-09T17:48:36;2.83;;;1.50;;
8564;SDS011;4320;51.498;6.556;2022-09-09T17:51:03;3.00;;;1.60;;
8564;SDS011;4320;51.498;6.556;2022-09-09T17:53:30;2.78;;;1.60;;
8564;SDS011;4320;51.498;6.556;2022-09-09T17:56:01;2.20;;;1.50;;
8564;SDS011;4320;51.498;6.556;2022-09-09T17:58:28;1.52;;;1.40;;
8564;SDS011;4320;51.498;6.556;2022-09-09T18:00:54;2.45;;;1.70;;
8564;SDS011;4320;51.498;6.556;2022-09-09T18:03:19;2.75;;;1.65;;